createdAt,value
2018-06-04T00:01:05.484Z,17.90
2018-06-04T00:03:34.082Z,17.90
2018-06-04T00:06:02.721Z,17.90
2018-06-04T00:08:31.369Z,17.90
2018-06-04T00:13:28.289Z,17.80
2018-06-04T00:15:56.917Z,17.80
2018-06-04T00:18:25.503Z,17.80
2018-06-04T00:20:54.137Z,17.80
2018-06-04T00:23:22.714Z,17.80
2018-06-04T00:25:51.317Z,17.80
2018-06-04T00:28:19.993Z,17.70
2018-06-04T00:30:48.733Z,17.70
2018-06-04T00:33:17.385Z,17.70
2018-06-04T00:35:45.976Z,17.60
2018-06-04T00:38:14.582Z,17.50
2018-06-04T00:40:43.221Z,17.50
2018-06-04T00:43:11.851Z,17.40
2018-06-04T00:45:40.462Z,17.50
2018-06-04T00:48:09.070Z,17.50
2018-06-04T00:50:37.719Z,17.50
2018-06-04T00:53:06.313Z,17.50
2018-06-04T00:55:44.853Z,17.50
2018-06-04T00:58:13.436Z,17.40
2018-06-04T01:00:42.090Z,17.40
2018-06-04T01:03:10.701Z,17.30
2018-06-04T01:05:39.365Z,17.30
2018-06-04T01:08:07.993Z,17.30
2018-06-04T01:10:36.648Z,17.20
2018-06-04T01:13:05.245Z,17.20
2018-06-04T01:15:33.874Z,17.30
2018-06-04T01:18:02.589Z,17.30
2018-06-04T01:20:31.261Z,17.20
2018-06-04T01:22:59.909Z,17.20
2018-06-04T01:25:28.549Z,17.30
2018-06-04T01:27:57.290Z,17.40
2018-06-04T01:30:25.972Z,17.30
2018-06-04T01:32:54.606Z,17.30
2018-06-04T01:35:23.220Z,17.30
2018-06-04T01:37:51.918Z,17.20
2018-06-04T01:40:20.528Z,17.20
2018-06-04T01:42:49.206Z,17.30
2018-06-04T01:45:17.851Z,17.30
2018-06-04T01:47:46.589Z,17.20
2018-06-04T01:50:15.209Z,17.20
2018-06-04T01:52:43.889Z,17.20
2018-06-04T01:55:12.541Z,17.20
2018-06-04T01:57:41.183Z,17.30
2018-06-04T02:00:09.887Z,17.40
2018-06-04T02:02:38.526Z,17.50
2018-06-04T02:05:07.175Z,17.60
2018-06-04T02:07:35.826Z,17.50
2018-06-04T02:10:04.605Z,17.50
2018-06-04T02:12:33.278Z,17.50
2018-06-04T02:15:01.926Z,17.50
2018-06-04T02:17:30.609Z,17.50
2018-06-04T02:19:59.261Z,17.40
2018-06-04T02:22:27.930Z,17.50
2018-06-04T02:24:56.623Z,17.40
2018-06-04T02:27:25.285Z,17.40
2018-06-04T02:29:53.901Z,17.40
2018-06-04T02:32:22.499Z,17.30
2018-06-04T02:34:51.106Z,17.30
2018-06-04T02:37:19.705Z,17.30
2018-06-04T02:39:48.268Z,17.30
2018-06-04T02:42:16.938Z,17.30
2018-06-04T02:44:45.620Z,17.20
2018-06-04T02:47:14.329Z,17.20
2018-06-04T02:49:42.968Z,17.00
2018-06-04T02:52:11.585Z,17.00
2018-06-04T02:54:40.197Z,17.00
2018-06-04T02:57:08.854Z,17.00
2018-06-04T02:59:37.572Z,16.90
2018-06-04T03:02:06.174Z,16.70
2018-06-04T03:04:34.773Z,16.80
2018-06-04T03:07:03.376Z,16.80
2018-06-04T03:09:31.975Z,16.90
2018-06-04T03:12:00.586Z,16.80
2018-06-04T03:14:29.184Z,16.60
2018-06-04T03:16:57.809Z,16.50
2018-06-04T03:19:26.394Z,16.50
2018-06-04T03:21:54.985Z,16.40
2018-06-04T03:24:23.569Z,16.30
2018-06-04T03:26:52.152Z,16.20
2018-06-04T03:29:20.858Z,16.20
2018-06-04T03:31:49.514Z,16.10
2018-06-04T03:34:18.131Z,16.00
2018-06-04T03:36:46.803Z,16.00
2018-06-04T03:39:15.412Z,16.00
2018-06-04T03:41:44.085Z,15.90
2018-06-04T03:44:12.665Z,15.90
2018-06-04T03:46:41.260Z,16.00
2018-06-04T03:49:09.852Z,15.90
2018-06-04T03:51:38.463Z,15.90
2018-06-04T03:54:07.032Z,16.00
2018-06-04T03:56:35.643Z,16.00
2018-06-04T03:59:04.814Z,16.00
2018-06-04T04:01:33.397Z,15.90
2018-06-04T04:04:02.098Z,15.90
2018-06-04T04:06:30.732Z,16.10
2018-06-04T04:08:59.378Z,16.20
2018-06-04T04:11:27.981Z,16.20
2018-06-04T04:13:56.739Z,16.30
2018-06-04T04:16:25.382Z,16.70
2018-06-04T04:18:54.019Z,16.70
2018-06-04T04:21:22.621Z,16.90
2018-06-04T04:23:51.319Z,16.80
2018-06-04T04:26:19.961Z,16.90
2018-06-04T04:28:48.608Z,17.00
2018-06-04T04:31:17.193Z,17.20
2018-06-04T04:33:45.795Z,17.30
2018-06-04T04:36:14.430Z,17.60
2018-06-04T04:38:43.048Z,17.60
2018-06-04T04:41:11.670Z,17.70
2018-06-04T04:43:40.313Z,17.70
2018-06-04T04:46:08.904Z,17.60
2018-06-04T04:48:37.561Z,17.60
2018-06-04T04:51:06.516Z,17.90
2018-06-04T04:53:35.138Z,18.00
2018-06-04T04:56:03.742Z,18.10
2018-06-04T04:58:32.317Z,17.70
2018-06-04T05:01:01.418Z,17.60
2018-06-04T05:03:30.097Z,18.00
2018-06-04T05:05:58.718Z,18.10
2018-06-04T05:08:27.322Z,18.30
2018-06-04T05:10:55.935Z,18.40
2018-06-04T05:13:24.551Z,18.50
2018-06-04T05:15:53.120Z,18.60
2018-06-04T05:18:21.758Z,18.60
2018-06-04T05:20:50.357Z,18.60
2018-06-04T05:23:19.017Z,19.00
2018-06-04T05:25:48.228Z,19.10
2018-06-04T05:28:16.876Z,19.50
2018-06-04T05:30:45.577Z,19.80
2018-06-04T05:33:14.191Z,20.00
2018-06-04T05:35:42.834Z,19.80
2018-06-04T05:38:11.482Z,20.00
2018-06-04T05:40:40.090Z,20.10
2018-06-04T05:43:08.713Z,20.00
2018-06-04T05:45:37.292Z,20.10
2018-06-04T05:48:05.965Z,20.20
2018-06-04T05:50:34.619Z,20.20
2018-06-04T05:53:03.228Z,19.90
2018-06-04T05:55:31.792Z,19.40
2018-06-04T05:58:00.393Z,20.10
2018-06-04T06:00:29.011Z,20.60
2018-06-04T06:02:57.618Z,21.90
2018-06-04T06:05:26.213Z,23.20
2018-06-04T06:07:54.849Z,23.80
2018-06-04T06:10:23.424Z,25.10
2018-06-04T06:12:52.122Z,24.60
2018-06-04T06:15:20.702Z,24.60
2018-06-04T06:17:49.315Z,25.20
2018-06-04T06:20:17.906Z,25.60
2018-06-04T06:22:46.550Z,26.40
2018-06-04T06:25:15.242Z,26.90
2018-06-04T06:27:43.859Z,26.50
2018-06-04T06:30:12.516Z,26.10
2018-06-04T06:54:05.082Z,21.60
2018-06-04T06:56:33.687Z,21.90
2018-06-04T06:59:02.342Z,21.90
2018-06-04T07:01:30.967Z,22.20
2018-06-04T07:03:59.634Z,22.40
2018-06-04T07:06:28.324Z,22.60
2018-06-04T07:08:56.960Z,22.50
2018-06-04T07:13:53.828Z,22.80
2018-06-04T07:16:22.458Z,22.90
2018-06-04T07:18:51.117Z,22.80
2018-06-04T07:21:19.722Z,22.70
2018-06-04T07:23:48.412Z,22.80
2018-06-04T07:26:17.053Z,22.90
2018-06-04T07:28:45.741Z,23.20
2018-06-04T07:31:14.402Z,23.30
2018-06-04T07:33:43.037Z,23.40
2018-06-04T07:36:12.314Z,23.70
2018-06-04T07:41:09.399Z,23.80
2018-06-04T07:43:38.068Z,24.00
2018-06-04T07:46:06.712Z,23.90
2018-06-04T07:48:35.346Z,23.80
2018-06-04T07:51:03.962Z,24.00
2018-06-04T07:53:32.615Z,24.10
2018-06-04T07:56:01.306Z,24.10
2018-06-04T07:58:30.005Z,24.20
2018-06-04T08:00:58.602Z,24.50
2018-06-04T08:03:27.225Z,24.10
2018-06-04T08:05:55.870Z,24.50
2018-06-04T08:08:24.573Z,24.40
2018-06-04T08:10:53.248Z,24.40
2018-06-04T08:13:26.347Z,24.90
2018-06-04T08:18:24.497Z,25.00
2018-06-04T08:20:53.287Z,24.90
2018-06-04T08:23:21.928Z,24.60
2018-06-04T08:25:50.595Z,25.00
2018-06-04T08:28:19.217Z,25.30
2018-06-04T08:30:47.915Z,25.30
2018-06-04T08:33:16.541Z,25.40
2018-06-04T08:35:45.158Z,25.40
2018-06-04T08:38:13.777Z,25.40
2018-06-04T08:40:42.418Z,25.20
2018-06-04T08:43:11.011Z,25.20
2018-06-04T08:45:39.667Z,25.20
2018-06-04T08:48:08.242Z,25.20
2018-06-04T08:50:36.875Z,25.10
2018-06-04T08:53:05.482Z,25.00
2018-06-04T08:55:34.058Z,25.00
2018-06-04T08:58:02.645Z,25.10
2018-06-04T09:00:31.309Z,24.90
2018-06-04T09:02:59.882Z,25.20
2018-06-04T09:05:28.509Z,25.60
2018-06-04T09:07:57.072Z,25.50
2018-06-04T09:10:25.692Z,25.50
2018-06-04T09:12:54.308Z,25.80
2018-06-04T09:15:22.977Z,26.00
2018-06-04T09:17:51.609Z,26.30
2018-06-04T09:20:20.233Z,26.10
2018-06-04T09:22:48.825Z,25.70
2018-06-04T09:25:17.477Z,25.60
2018-06-04T09:27:46.088Z,25.90
2018-06-04T09:30:14.746Z,26.10
2018-06-04T09:32:43.329Z,26.30
2018-06-04T09:35:12.001Z,26.40
2018-06-04T09:37:40.739Z,26.10
2018-06-04T09:40:09.355Z,26.60
2018-06-04T09:42:37.910Z,26.80
2018-06-04T09:45:06.538Z,26.80
2018-06-04T09:47:35.146Z,26.80
2018-06-04T09:50:03.849Z,26.80
2018-06-04T09:52:32.446Z,27.10
2018-06-04T09:55:01.057Z,27.10
2018-06-04T09:57:29.642Z,27.30
2018-06-04T09:59:58.245Z,27.10
2018-06-04T10:02:26.842Z,27.10
2018-06-04T10:04:55.442Z,27.00
2018-06-04T10:07:24.034Z,27.00
2018-06-04T10:09:52.654Z,27.00
2018-06-04T10:12:21.246Z,26.90
2018-06-04T10:14:49.893Z,26.80
2018-06-04T10:17:18.464Z,26.70
2018-06-04T10:22:15.297Z,26.40
2018-06-04T10:24:43.905Z,27.00
2018-06-04T10:27:12.482Z,27.10
2018-06-04T10:29:41.099Z,27.40
2018-06-04T10:32:09.718Z,27.10
2018-06-04T10:34:38.331Z,27.10
2018-06-04T10:37:06.915Z,27.10
2018-06-04T10:39:35.461Z,27.10
2018-06-04T10:42:04.053Z,27.50
2018-06-04T10:44:32.623Z,27.70
2018-06-04T10:47:01.228Z,27.60
2018-06-04T10:49:29.796Z,27.20
2018-06-04T10:51:58.397Z,27.20
2018-06-04T10:54:26.977Z,27.10
2018-06-04T10:56:55.569Z,27.20
2018-06-04T10:59:24.161Z,27.40
2018-06-04T11:01:52.745Z,27.70
2018-06-04T11:04:21.337Z,27.80
2018-06-04T11:06:50.012Z,27.80
2018-06-04T11:09:18.675Z,28.30
2018-06-04T11:11:47.313Z,28.80
2018-06-04T11:14:15.950Z,28.70
2018-06-04T11:16:44.624Z,28.20
2018-06-04T11:19:13.234Z,27.70
2018-06-04T11:21:41.927Z,27.20
2018-06-04T11:24:10.509Z,27.80
2018-06-04T11:26:39.154Z,27.90
2018-06-04T11:29:07.742Z,28.10
2018-06-04T11:31:36.341Z,28.90
2018-06-04T11:34:04.909Z,28.80
2018-06-04T11:36:33.536Z,28.40
2018-06-04T11:39:02.139Z,27.90
2018-06-04T11:41:30.873Z,27.40
2018-06-04T11:43:59.758Z,27.20
2018-06-04T11:46:28.300Z,27.30
2018-06-04T11:48:56.879Z,28.00
2018-06-04T11:51:25.464Z,28.80
2018-06-04T11:53:54.057Z,29.10
2018-06-04T11:56:22.680Z,28.50
2018-06-04T11:58:51.205Z,28.20
2018-06-04T12:01:19.789Z,27.80
2018-06-04T12:03:48.588Z,27.80
2018-06-04T12:06:17.290Z,28.40
2018-06-04T12:08:45.840Z,29.00
2018-06-04T12:11:14.452Z,29.20
2018-06-04T12:13:43.012Z,29.30
2018-06-04T12:16:11.601Z,29.40
2018-06-04T12:18:40.181Z,29.30
2018-06-04T12:21:08.787Z,29.10
2018-06-04T12:23:37.352Z,29.20
2018-06-04T12:26:05.976Z,29.10
2018-06-04T12:28:34.545Z,29.20
2018-06-04T12:31:03.188Z,28.60
2018-06-04T12:33:31.732Z,28.90
2018-06-04T12:36:00.345Z,28.90
2018-06-04T12:38:28.910Z,29.20
2018-06-04T12:40:57.493Z,29.40
2018-06-04T12:43:26.053Z,29.30
2018-06-04T12:45:54.644Z,28.70
2018-06-04T12:48:23.246Z,28.20
2018-06-04T12:50:51.848Z,27.70
2018-06-04T12:53:20.399Z,28.50
2018-06-04T12:55:48.961Z,28.00
2018-06-04T12:58:17.513Z,27.80
2018-06-04T13:00:46.112Z,27.70
2018-06-04T13:03:14.668Z,27.60
2018-06-04T13:05:43.317Z,28.00
2018-06-04T13:08:11.937Z,28.50
2018-06-04T13:10:40.594Z,29.10
2018-06-04T13:13:09.208Z,29.50
2018-06-04T13:15:37.792Z,29.60
2018-06-04T13:18:06.428Z,29.90
2018-06-04T13:20:35.105Z,30.10
2018-06-04T13:23:03.728Z,30.30
2018-06-04T13:25:32.328Z,30.60
2018-06-04T13:28:00.902Z,30.70
2018-06-04T13:30:29.521Z,30.30
2018-06-04T13:32:58.174Z,30.20
2018-06-04T13:35:26.781Z,29.60
2018-06-04T13:37:55.363Z,28.80
2018-06-04T13:40:23.968Z,28.50
2018-06-04T13:42:52.576Z,29.00
2018-06-04T13:45:21.154Z,29.50
2018-06-04T13:47:49.752Z,29.30
2018-06-04T13:50:18.341Z,29.30
2018-06-04T13:52:46.927Z,28.60
2018-06-04T13:55:15.541Z,28.70
2018-06-04T13:57:44.163Z,28.60
2018-06-04T14:00:12.733Z,29.30
2018-06-04T14:02:41.403Z,29.70
2018-06-04T14:05:10.596Z,29.90
2018-06-04T14:07:39.269Z,29.30
2018-06-04T14:10:07.932Z,29.20
2018-06-04T14:12:36.552Z,29.20
2018-06-04T14:15:05.171Z,29.10
2018-06-04T14:17:33.816Z,28.80
2018-06-04T14:20:02.418Z,28.50
2018-06-04T14:22:31.050Z,27.60
2018-06-04T14:24:59.624Z,27.60
2018-06-04T14:29:56.512Z,27.00
2018-06-04T14:32:25.158Z,26.80
2018-06-04T14:34:53.771Z,26.00
2018-06-04T14:37:22.381Z,25.50
2018-06-04T14:39:50.932Z,25.50
2018-06-04T14:42:19.587Z,25.90
2018-06-04T14:44:48.183Z,26.20
2018-06-04T14:47:16.863Z,26.90
2018-06-04T14:49:45.431Z,27.40
2018-06-04T14:52:14.093Z,27.80
2018-06-04T14:54:42.674Z,28.00
2018-06-04T14:57:11.269Z,28.00
2018-06-04T14:59:39.898Z,27.60
2018-06-04T15:02:08.513Z,27.10
2018-06-04T15:04:37.158Z,27.00
2018-06-04T15:07:05.791Z,26.80
2018-06-04T15:09:34.362Z,26.60
2018-06-04T15:12:02.993Z,26.90
2018-06-04T15:14:31.616Z,26.60
2018-06-04T15:17:00.223Z,26.80
2018-06-04T15:19:28.857Z,26.30
2018-06-04T15:21:57.511Z,26.40
2018-06-04T15:24:26.130Z,27.00
2018-06-04T15:26:54.717Z,27.50
2018-06-04T15:29:23.317Z,27.60
2018-06-04T15:31:51.957Z,27.90
2018-06-04T15:34:20.544Z,28.20
2018-06-04T15:36:49.195Z,28.10
2018-06-04T15:39:17.812Z,28.00
2018-06-04T15:41:46.392Z,28.20
2018-06-04T15:44:15.017Z,28.20
2018-06-04T15:46:43.604Z,28.30
2018-06-04T15:49:12.224Z,28.10
2018-06-04T15:51:40.873Z,28.20
2018-06-04T15:54:09.523Z,28.50
2018-06-04T15:56:38.120Z,28.70
2018-06-04T15:59:06.798Z,28.70
2018-06-04T16:01:35.453Z,28.50
2018-06-04T16:04:04.097Z,28.50
2018-06-04T16:06:32.685Z,28.30
2018-06-04T16:09:01.441Z,28.30
2018-06-04T16:11:30.161Z,28.40
2018-06-04T16:13:58.781Z,28.30
2018-06-04T16:16:27.434Z,28.50
2018-06-04T16:18:56.109Z,29.00
2018-06-04T16:21:24.716Z,28.90
2018-06-04T16:23:53.357Z,28.60
2018-06-04T16:26:22.006Z,28.30
2018-06-04T16:28:50.647Z,27.40
2018-06-04T16:31:19.243Z,27.10
2018-06-04T16:33:47.880Z,26.90
2018-06-04T16:36:16.485Z,26.50
2018-06-04T16:38:45.079Z,26.10
2018-06-04T16:41:13.667Z,25.90
2018-06-04T16:43:42.280Z,25.60
2018-06-04T16:46:10.859Z,25.40
2018-06-04T16:48:39.489Z,25.30
2018-06-04T16:51:08.095Z,25.10
2018-06-04T16:53:36.740Z,25.10
2018-06-04T16:56:05.328Z,25.00
2018-06-04T16:58:33.984Z,24.90
2018-06-04T17:01:02.575Z,24.80
2018-06-04T17:03:31.207Z,24.70
2018-06-04T17:05:59.855Z,24.60
2018-06-04T17:08:28.505Z,24.50
2018-06-04T17:10:57.136Z,24.50
2018-06-04T17:13:25.800Z,24.40
2018-06-04T17:15:54.436Z,24.40
2018-06-04T17:18:23.141Z,24.40
2018-06-04T17:20:51.746Z,24.30
2018-06-04T17:23:20.499Z,24.20
2018-06-04T17:25:49.132Z,24.20
2018-06-04T17:28:17.811Z,24.00
2018-06-04T17:33:14.813Z,24.00
2018-06-04T17:35:43.533Z,23.90
2018-06-04T17:38:12.183Z,23.90
2018-06-04T17:40:40.853Z,24.00
2018-06-04T17:43:09.467Z,23.90
2018-06-04T17:45:38.091Z,23.90
2018-06-04T17:48:06.743Z,23.90
2018-06-04T17:50:35.347Z,24.00
2018-06-04T17:53:04.015Z,24.10
2018-06-04T17:55:32.620Z,24.20
2018-06-04T17:58:01.283Z,24.30
2018-06-04T18:00:29.894Z,24.50
2018-06-04T18:02:58.552Z,24.40
2018-06-04T18:05:27.169Z,24.30
2018-06-04T18:07:55.802Z,24.30
2018-06-04T18:10:24.436Z,24.30
2018-06-04T18:12:53.391Z,24.20
2018-06-04T18:15:22.181Z,24.10
2018-06-04T18:17:50.927Z,24.10
2018-06-04T18:20:19.759Z,24.00
2018-06-04T18:22:48.581Z,24.00
2018-06-04T18:25:17.288Z,24.00
2018-06-04T18:27:46.946Z,23.80
2018-06-04T18:30:15.705Z,23.70
2018-06-04T18:32:44.452Z,23.70
2018-06-04T18:35:13.207Z,23.60
2018-06-04T18:37:41.889Z,23.60
2018-06-04T18:40:10.583Z,23.60
2018-06-04T18:42:39.196Z,23.50
2018-06-04T18:45:07.865Z,23.40
2018-06-04T18:47:36.525Z,23.20
2018-06-04T18:50:05.259Z,23.20
2018-06-04T18:52:33.979Z,23.10
2018-06-04T18:55:02.612Z,23.00
2018-06-04T18:57:31.265Z,23.00
2018-06-04T19:00:00.004Z,22.90
2018-06-04T19:02:28.613Z,22.80
2018-06-04T19:04:57.362Z,22.80
2018-06-04T19:07:26.042Z,22.80
2018-06-04T19:09:54.699Z,22.70
2018-06-04T19:12:23.320Z,22.70
2018-06-04T19:14:52.025Z,22.70
2018-06-04T19:17:20.660Z,22.70
2018-06-04T19:19:49.326Z,22.60
2018-06-04T19:22:17.984Z,22.50
2018-06-04T19:24:46.669Z,22.50
2018-06-04T19:27:15.281Z,22.50
2018-06-04T19:29:43.969Z,22.40
2018-06-04T19:32:12.594Z,22.30
2018-06-04T19:34:41.229Z,22.20
2018-06-04T19:37:09.854Z,22.20
2018-06-04T19:39:38.516Z,22.10
2018-06-04T19:42:07.145Z,22.10
2018-06-04T19:44:35.843Z,22.00
2018-06-04T19:47:04.505Z,22.00
2018-06-04T19:49:33.232Z,22.00
2018-06-04T19:54:30.352Z,21.80
2018-06-04T19:56:59.072Z,21.70
2018-06-04T19:59:27.721Z,21.60
2018-06-04T20:01:56.361Z,21.60
2018-06-04T20:04:25.092Z,21.60
2018-06-04T20:06:53.768Z,21.60
2018-06-04T20:09:22.688Z,21.50
2018-06-04T20:11:51.305Z,21.40
2018-06-04T20:14:19.921Z,21.40
2018-06-04T20:16:48.500Z,21.40
2018-06-04T20:19:17.188Z,21.40
2018-06-04T20:21:45.783Z,21.40
2018-06-04T20:24:14.409Z,21.30
2018-06-04T20:26:43.081Z,21.30
2018-06-04T20:29:11.765Z,21.30
2018-06-04T20:31:40.400Z,21.30
2018-06-04T20:34:09.074Z,21.30
2018-06-04T20:36:37.704Z,21.30
2018-06-04T20:39:08.828Z,21.30
2018-06-04T20:41:37.789Z,21.20
2018-06-04T20:44:06.537Z,21.20
2018-06-04T20:46:35.090Z,21.10
2018-06-04T20:49:03.766Z,21.10
2018-06-04T20:51:32.418Z,21.10
2018-06-04T20:54:01.008Z,21.10
2018-06-04T20:56:29.622Z,21.10
2018-06-04T20:58:58.238Z,21.00
2018-06-04T21:01:26.886Z,21.00
2018-06-04T21:03:55.537Z,20.90
2018-06-04T21:06:24.259Z,21.00
2018-06-04T21:08:52.924Z,21.00
2018-06-04T21:11:21.568Z,20.90
2018-06-04T21:13:50.305Z,20.80
2018-06-04T21:16:19.069Z,20.80
2018-06-04T21:18:47.843Z,20.80
2018-06-04T21:21:16.533Z,20.70
2018-06-04T21:23:45.165Z,20.80
2018-06-04T21:26:13.831Z,20.70
2018-06-04T21:28:42.461Z,20.70
2018-06-04T21:31:11.137Z,20.70
2018-06-04T21:33:39.789Z,20.60
2018-06-04T21:36:08.403Z,20.60
2018-06-04T21:38:37.077Z,20.50
2018-06-04T21:41:05.791Z,20.40
2018-06-04T21:43:34.556Z,20.30
2018-06-04T21:46:03.265Z,20.30
2018-06-04T21:48:31.853Z,20.30
2018-06-04T21:51:00.675Z,20.30
2018-06-04T21:53:29.332Z,20.30
2018-06-04T21:55:58.110Z,20.30
2018-06-04T21:58:26.823Z,20.30
2018-06-04T22:00:55.544Z,20.30
2018-06-04T22:03:24.235Z,20.30
2018-06-04T22:05:52.947Z,20.30
2018-06-04T22:08:21.606Z,20.30
2018-06-04T22:10:50.345Z,20.30
2018-06-04T22:13:18.954Z,20.20
2018-06-04T22:15:47.661Z,20.30
2018-06-04T22:18:16.391Z,20.30
2018-06-04T22:20:45.084Z,20.30
2018-06-04T22:23:13.785Z,20.30
2018-06-04T22:25:42.472Z,20.20
2018-06-04T22:28:11.186Z,20.20
2018-06-04T22:30:39.849Z,20.10
2018-06-04T22:33:08.499Z,20.00
2018-06-04T22:35:37.183Z,20.00
2018-06-04T22:38:05.875Z,20.00
2018-06-04T22:40:34.593Z,20.10
2018-06-04T22:43:03.252Z,20.00
2018-06-04T22:45:31.947Z,20.00
2018-06-04T22:48:00.637Z,20.00
2018-06-04T22:50:29.309Z,19.90
2018-06-04T22:52:58.012Z,19.90
2018-06-04T22:55:26.695Z,19.80
2018-06-04T22:57:55.364Z,19.80
2018-06-04T23:00:39.787Z,19.80
2018-06-04T23:03:08.444Z,19.70
2018-06-04T23:05:37.139Z,19.70
2018-06-04T23:08:05.781Z,19.60
2018-06-04T23:10:34.444Z,19.60
2018-06-04T23:13:03.059Z,19.60
2018-06-04T23:15:31.654Z,19.60
2018-06-04T23:18:01.176Z,19.60
2018-06-04T23:20:29.867Z,19.60
2018-06-04T23:22:58.483Z,19.60
2018-06-04T23:25:27.176Z,19.50
2018-06-04T23:27:55.774Z,19.40
2018-06-04T23:30:24.505Z,19.40
2018-06-04T23:32:53.133Z,19.30
2018-06-04T23:35:21.772Z,19.30
2018-06-04T23:37:50.428Z,19.30
2018-06-04T23:40:19.003Z,19.30
2018-06-04T23:42:47.656Z,19.30
2018-06-04T23:45:16.724Z,19.30
2018-06-04T23:47:45.362Z,19.30
2018-06-04T23:52:42.232Z,19.20
2018-06-04T23:55:10.848Z,19.20
2018-06-04T23:57:39.460Z,19.20
